sensor_id;sensor_type;location;lat;lon;timestamp;pressure;altitude;pressure_sealevel;temperature;humidity
7075;BME280;3578;51.568;6.932;2022-11-15T00:00:05;53821.28;;;-144.14;100.00
7075;BME280;3578;51.568;6.932;2022-11-15T00:02:32;53819.28;;;-144.14;100.00
7075;BME280;3578;51.568;6.932;2022-11-15T00:04:59;53877.41;;;-144.14;100.00
7075;BME280;3578;51.568;6.932;2022-11-15T00:07:26;53813.28;;;-144.14;100.00
7075;BME280;3578;51.568;6.932;2022-11-15T00:09:53;53833.31;;;-144.14;100.00
7075;BME280;3578;51.568;6.932;2022-11-15T00:12:20;53855.38;;;-144.14;100.00
7075;BME280;3578;51.568;6.932;2022-11-15T00:14:49;53819.28;;;-144.14;100.00
7075;BME280;3578;51.568;6.932;2022-11-15T00:17:16;53855.38;;;-144.14;100.00
7075;BME280;3578;51.568;6.932;2022-11-15T00:19:43;53821.28;;;-144.14;100.00
7075;BME280;3578;51.568;6.932;2022-11-15T00:22:11;53823.28;;;-144.14;100.00
7075;BME280;3578;51.568;6.932;2022-11-15T00:24:37;53859.38;;;-144.14;100.00
7075;BME280;3578;51.568;6.932;2022-11-15T00:27:04;53843.34;;;-144.14;100.00
7075;BME280;3578;51.568;6.932;2022-11-15T00:29:32;53843.34;;;-144.14;100.00
7075;BME280;3578;51.568;6.932;2022-11-15T00:32:00;53839.31;;;-144.14;100.00
7075;BME280;3578;51.568;6.932;2022-11-15T00:34:27;53853.34;;;-144.14;100.00
7075;BME280;3578;51.568;6.932;2022-11-15T00:36:54;53799.25;;;-144.14;100.00
7075;BME280;3578;51.568;6.932;2022-11-15T00:39:21;53851.34;;;-144.14;100.00
7075;BME280;3578;51.568;6.932;2022-11-15T00:41:48;53805.25;;;-144.14;100.00
7075;BME280;3578;51.568;6.932;2022-11-15T00:44:15;53817.28;;;-144.14;100.00
7075;BME280;3578;51.568;6.932;2022-11-15T00:46:42;53811.25;;;-144.14;100.00
7075;BME280;3578;51.568;6.932;2022-11-15T00:49:11;53805.25;;;-144.14;100.00
7075;BME280;3578;51.568;6.932;2022-11-15T00:51:38;53815.28;;;-144.14;100.00
7075;BME280;3578;51.568;6.932;2022-11-15T00:54:05;53823.28;;;-144.14;100.00
7075;BME280;3578;51.568;6.932;2022-11-15T00:56:32;53837.31;;;-144.14;100.00
7075;BME280;3578;51.568;6.932;2022-11-15T00:58:59;53795.22;;;-144.14;100.00
7075;BME280;3578;51.568;6.932;2022-11-15T01:01:26;53827.31;;;-144.14;100.00
7075;BME280;3578;51.568;6.932;2022-11-15T01:03:53;53815.28;;;-144.14;100.00
7075;BME280;3578;51.568;6.932;2022-11-15T01:06:21;53845.34;;;-144.14;100.00
7075;BME280;3578;51.568;6.932;2022-11-15T01:08:48;53841.34;;;-144.14;100.00
7075;BME280;3578;51.568;6.932;2022-11-15T01:11:15;53801.25;;;-144.14;100.00
7075;BME280;3578;51.568;6.932;2022-11-15T01:13:42;53783.19;;;-144.14;100.00
7075;BME280;3578;51.568;6.932;2022-11-15T01:16:12;53821.28;;;-144.14;100.00
7075;BME280;3578;51.568;6.932;2022-11-15T01:18:41;53783.19;;;-144.14;100.00
7075;BME280;3578;51.568;6.932;2022-11-15T01:21:10;53823.28;;;-144.14;100.00
7075;BME280;3578;51.568;6.932;2022-11-15T01:23:39;53827.31;;;-144.14;100.00
7075;BME280;3578;51.568;6.932;2022-11-15T01:26:09;53807.25;;;-144.14;100.00
7075;BME280;3578;51.568;6.932;2022-11-15T01:28:38;53819.28;;;-144.14;100.00
7075;BME280;3578;51.568;6.932;2022-11-15T01:31:13;53803.25;;;-144.14;100.00
7075;BME280;3578;51.568;6.932;2022-11-15T01:33:41;53867.38;;;-144.14;100.00
7075;BME280;3578;51.568;6.932;2022-11-15T01:36:12;53891.44;;;-144.14;100.00
7075;BME280;3578;51.568;6.932;2022-11-15T01:38:41;53895.44;;;-144.14;100.00
7075;BME280;3578;51.568;6.932;2022-11-15T01:41:16;53905.47;;;-144.14;100.00
7075;BME280;3578;51.568;6.932;2022-11-15T01:43:44;53907.47;;;-144.14;100.00
7075;BME280;3578;51.568;6.932;2022-11-15T01:46:25;53909.47;;;-144.14;100.00
7075;BME280;3578;51.568;6.932;2022-11-15T01:48:55;53899.47;;;-144.14;100.00
7075;BME280;3578;51.568;6.932;2022-11-15T01:51:27;53935.53;;;-144.14;100.00
7075;BME280;3578;51.568;6.932;2022-11-15T01:54:03;53891.44;;;-144.14;100.00
7075;BME280;3578;51.568;6.932;2022-11-15T01:56:44;53919.50;;;-144.14;100.00
7075;BME280;3578;51.568;6.932;2022-11-15T01:59:13;53935.53;;;-144.14;100.00
7075;BME280;3578;51.568;6.932;2022-11-15T02:01:40;53939.56;;;-144.14;100.00
7075;BME280;3578;51.568;6.932;2022-11-15T02:04:14;53927.53;;;-144.14;100.00
7075;BME280;3578;51.568;6.932;2022-11-15T02:06:43;53927.53;;;-144.14;100.00
7075;BME280;3578;51.568;6.932;2022-11-15T02:09:12;53955.59;;;-144.14;100.00
7075;BME280;3578;51.568;6.932;2022-11-15T02:11:39;53951.56;;;-144.14;100.00
7075;BME280;3578;51.568;6.932;2022-11-15T02:14:07;53925.53;;;-144.14;100.00
7075;BME280;3578;51.568;6.932;2022-11-15T02:16:43;53953.59;;;-144.14;100.00
7075;BME280;3578;51.568;6.932;2022-11-15T02:19:34;53927.53;;;-144.14;100.00
7075;BME280;3578;51.568;6.932;2022-11-15T02:22:16;54009.72;;;-144.14;100.00
7075;BME280;3578;51.568;6.932;2022-11-15T02:25:06;53971.63;;;-144.14;100.00
7075;BME280;3578;51.568;6.932;2022-11-15T02:28:24;53999.69;;;-144.14;100.00
7075;BME280;3578;51.568;6.932;2022-11-15T02:31:02;53991.66;;;-144.14;100.00
7075;BME280;3578;51.568;6.932;2022-11-15T02:33:38;53985.66;;;-144.14;100.00
7075;BME280;3578;51.568;6.932;2022-11-15T02:36:13;53981.66;;;-144.14;100.00
7075;BME280;3578;51.568;6.932;2022-11-15T02:38:47;54001.69;;;-144.14;100.00
7075;BME280;3578;51.568;6.932;2022-11-15T02:41:25;54019.72;;;-144.14;100.00
7075;BME280;3578;51.568;6.932;2022-11-15T02:43:59;53997.69;;;-144.14;100.00
7075;BME280;3578;51.568;6.932;2022-11-15T02:46:34;54001.69;;;-144.14;100.00
7075;BME280;3578;51.568;6.932;2022-11-15T02:49:20;54023.75;;;-144.14;100.00
7075;BME280;3578;51.568;6.932;2022-11-15T02:51:49;53987.66;;;-144.14;100.00
7075;BME280;3578;51.568;6.932;2022-11-15T02:54:21;54027.75;;;-144.14;100.00
7075;BME280;3578;51.568;6.932;2022-11-15T02:56:49;54015.72;;;-144.14;100.00
7075;BME280;3578;51.568;6.932;2022-11-15T02:59:55;54039.78;;;-144.14;100.00
7075;BME280;3578;51.568;6.932;2022-11-15T03:03:00;53991.66;;;-144.14;100.00
7075;BME280;3578;51.568;6.932;2022-11-15T03:05:52;54059.81;;;-144.14;100.00
7075;BME280;3578;51.568;6.932;2022-11-15T03:08:29;54021.72;;;-144.14;100.00
7075;BME280;3578;51.568;6.932;2022-11-15T03:11:07;54023.75;;;-144.14;100.00
7075;BME280;3578;51.568;6.932;2022-11-15T03:13:40;54043.78;;;-144.14;100.00
7075;BME280;3578;51.568;6.932;2022-11-15T03:16:17;54053.81;;;-144.14;100.00
7075;BME280;3578;51.568;6.932;2022-11-15T03:18:52;54027.75;;;-144.14;100.00
7075;BME280;3578;51.568;6.932;2022-11-15T03:21:22;54031.75;;;-144.14;100.00
7075;BME280;3578;51.568;6.932;2022-11-15T03:23:51;53995.69;;;-144.14;100.00
7075;BME280;3578;51.568;6.932;2022-11-15T03:26:21;54037.78;;;-144.14;100.00
7075;BME280;3578;51.568;6.932;2022-11-15T03:28:54;54047.78;;;-144.14;100.00
7075;BME280;3578;51.568;6.932;2022-11-15T03:31:23;54071.84;;;-144.14;100.00
7075;BME280;3578;51.568;6.932;2022-11-15T03:34:25;54069.84;;;-144.14;100.00
7075;BME280;3578;51.568;6.932;2022-11-15T03:36:53;54027.75;;;-144.14;100.00
7075;BME280;3578;51.568;6.932;2022-11-15T03:39:22;54097.91;;;-144.14;100.00
7075;BME280;3578;51.568;6.932;2022-11-15T03:41:57;54047.78;;;-144.14;100.00
7075;BME280;3578;51.568;6.932;2022-11-15T03:44:36;54075.84;;;-144.14;100.00
7075;BME280;3578;51.568;6.932;2022-11-15T03:47:09;54091.91;;;-144.14;100.00
7075;BME280;3578;51.568;6.932;2022-11-15T03:49:43;54059.81;;;-144.14;100.00
7075;BME280;3578;51.568;6.932;2022-11-15T03:52:11;54057.81;;;-144.14;100.00
7075;BME280;3578;51.568;6.932;2022-11-15T03:54:49;54055.81;;;-144.14;100.00
7075;BME280;3578;51.568;6.932;2022-11-15T03:57:16;54081.88;;;-144.14;100.00
7075;BME280;3578;51.568;6.932;2022-11-15T03:59:44;54059.81;;;-144.14;100.00
7075;BME280;3578;51.568;6.932;2022-11-15T04:02:12;54138.00;;;-144.14;100.00
7075;BME280;3578;51.568;6.932;2022-11-15T04:04:41;54115.94;;;-144.14;100.00
7075;BME280;3578;51.568;6.932;2022-11-15T04:07:08;54091.91;;;-144.14;100.00
7075;BME280;3578;51.568;6.932;2022-11-15T04:09:35;54089.88;;;-144.14;100.00
7075;BME280;3578;51.568;6.932;2022-11-15T04:12:23;54107.94;;;-144.14;100.00
7075;BME280;3578;51.568;6.932;2022-11-15T04:14:58;54111.94;;;-144.14;100.00
7075;BME280;3578;51.568;6.932;2022-11-15T04:17:37;54115.94;;;-144.14;100.00
7075;BME280;3578;51.568;6.932;2022-11-15T04:20:10;54043.78;;;-144.14;100.00
7075;BME280;3578;51.568;6.932;2022-11-15T04:22:56;54075.84;;;-144.14;100.00
7075;BME280;3578;51.568;6.932;2022-11-15T04:25:42;54097.91;;;-144.14;100.00
7075;BME280;3578;51.568;6.932;2022-11-15T04:28:10;54111.94;;;-144.14;100.00
7075;BME280;3578;51.568;6.932;2022-11-15T04:30:38;54091.91;;;-144.14;100.00
7075;BME280;3578;51.568;6.932;2022-11-15T04:33:05;54132.00;;;-144.14;100.00
7075;BME280;3578;51.568;6.932;2022-11-15T04:35:33;54132.00;;;-144.14;100.00
7075;BME280;3578;51.568;6.932;2022-11-15T04:38:02;54144.00;;;-144.14;100.00
7075;BME280;3578;51.568;6.932;2022-11-15T04:40:28;54138.00;;;-144.14;100.00
7075;BME280;3578;51.568;6.932;2022-11-15T04:42:55;54142.00;;;-144.14;100.00
7075;BME280;3578;51.568;6.932;2022-11-15T04:45:22;54132.00;;;-144.14;100.00
7075;BME280;3578;51.568;6.932;2022-11-15T04:47:50;54146.03;;;-144.14;100.00
7075;BME280;3578;51.568;6.932;2022-11-15T04:50:17;54132.00;;;-144.14;100.00
7075;BME280;3578;51.568;6.932;2022-11-15T04:52:52;54144.00;;;-144.14;100.00
7075;BME280;3578;51.568;6.932;2022-11-15T04:55:20;54148.03;;;-144.14;100.00
7075;BME280;3578;51.568;6.932;2022-11-15T04:57:47;54132.00;;;-144.14;100.00
7075;BME280;3578;51.568;6.932;2022-11-15T05:00:16;54166.06;;;-144.14;100.00
7075;BME280;3578;51.568;6.932;2022-11-15T05:02:43;54140.00;;;-144.14;100.00
7075;BME280;3578;51.568;6.932;2022-11-15T05:05:27;54138.00;;;-144.14;100.00
7075;BME280;3578;51.568;6.932;2022-11-15T05:07:56;54156.03;;;-144.14;100.00
7075;BME280;3578;51.568;6.932;2022-11-15T05:10:23;54176.09;;;-144.14;100.00
7075;BME280;3578;51.568;6.932;2022-11-15T05:12:49;54164.06;;;-144.14;100.00
7075;BME280;3578;51.568;6.932;2022-11-15T05:15:16;54160.06;;;-144.14;100.00
7075;BME280;3578;51.568;6.932;2022-11-15T05:17:44;54144.00;;;-144.14;100.00
7075;BME280;3578;51.568;6.932;2022-11-15T05:20:11;54152.03;;;-144.14;100.00
7075;BME280;3578;51.568;6.932;2022-11-15T05:22:39;54142.00;;;-144.14;100.00
7075;BME280;3578;51.568;6.932;2022-11-15T05:25:08;54156.03;;;-144.14;100.00
7075;BME280;3578;51.568;6.932;2022-11-15T05:27:35;54146.03;;;-144.14;100.00
7075;BME280;3578;51.568;6.932;2022-11-15T05:30:02;54140.00;;;-144.14;100.00
7075;BME280;3578;51.568;6.932;2022-11-15T05:32:29;54164.06;;;-144.14;100.00
7075;BME280;3578;51.568;6.932;2022-11-15T05:34:56;54144.00;;;-144.14;100.00
7075;BME280;3578;51.568;6.932;2022-11-15T05:37:23;54136.00;;;-144.14;100.00
7075;BME280;3578;51.568;6.932;2022-11-15T05:39:50;54154.03;;;-144.14;100.00
7075;BME280;3578;51.568;6.932;2022-11-15T05:42:18;54158.03;;;-144.14;100.00
7075;BME280;3578;51.568;6.932;2022-11-15T05:44:48;54152.03;;;-144.14;100.00
7075;BME280;3578;51.568;6.932;2022-11-15T05:47:20;54111.94;;;-144.14;100.00
7075;BME280;3578;51.568;6.932;2022-11-15T05:49:50;54111.94;;;-144.14;100.00
7075;BME280;3578;51.568;6.932;2022-11-15T05:52:21;54148.03;;;-144.14;100.00
7075;BME280;3578;51.568;6.932;2022-11-15T05:54:50;54148.03;;;-144.14;100.00
7075;BME280;3578;51.568;6.932;2022-11-15T05:57:20;54103.91;;;-144.14;100.00
7075;BME280;3578;51.568;6.932;2022-11-15T05:59:47;54127.97;;;-144.14;100.00
7075;BME280;3578;51.568;6.932;2022-11-15T06:02:14;54105.94;;;-144.14;100.00
7075;BME280;3578;51.568;6.932;2022-11-15T06:04:41;54059.81;;;-144.14;100.00
7075;BME280;3578;51.568;6.932;2022-11-15T06:07:08;54083.88;;;-144.14;100.00
7075;BME280;3578;51.568;6.932;2022-11-15T06:09:35;54119.97;;;-144.14;100.00
7075;BME280;3578;51.568;6.932;2022-11-15T06:12:02;54101.91;;;-144.14;100.00
7075;BME280;3578;51.568;6.932;2022-11-15T06:14:30;54089.88;;;-144.14;100.00
7075;BME280;3578;51.568;6.932;2022-11-15T06:16:57;54136.00;;;-144.14;100.00
7075;BME280;3578;51.568;6.932;2022-11-15T06:19:24;54123.97;;;-144.14;100.00
7075;BME280;3578;51.568;6.932;2022-11-15T06:21:51;54121.97;;;-144.14;100.00
7075;BME280;3578;51.568;6.932;2022-11-15T06:24:18;54132.00;;;-144.14;100.00
7075;BME280;3578;51.568;6.932;2022-11-15T06:26:44;54099.91;;;-144.14;100.00
7075;BME280;3578;51.568;6.932;2022-11-15T06:29:11;54119.97;;;-144.14;100.00
7075;BME280;3578;51.568;6.932;2022-11-15T06:31:40;54119.97;;;-144.14;100.00
7075;BME280;3578;51.568;6.932;2022-11-15T06:34:07;54121.97;;;-144.14;100.00
7075;BME280;3578;51.568;6.932;2022-11-15T06:36:34;54113.94;;;-144.14;100.00
7075;BME280;3578;51.568;6.932;2022-11-15T06:39:02;54119.97;;;-144.14;100.00
7075;BME280;3578;51.568;6.932;2022-11-15T06:41:29;54093.91;;;-144.14;100.00
7075;BME280;3578;51.568;6.932;2022-11-15T06:43:56;54089.88;;;-144.14;100.00
7075;BME280;3578;51.568;6.932;2022-11-15T06:46:23;54095.91;;;-144.14;100.00
7075;BME280;3578;51.568;6.932;2022-11-15T06:48:52;54121.97;;;-144.14;100.00
7075;BME280;3578;51.568;6.932;2022-11-15T06:51:20;54105.94;;;-144.14;100.00
7075;BME280;3578;51.568;6.932;2022-11-15T06:53:46;54172.09;;;-144.14;100.00
7075;BME280;3578;51.568;6.932;2022-11-15T06:56:13;54123.97;;;-144.14;100.00
7075;BME280;3578;51.568;6.932;2022-11-15T06:58:40;54160.06;;;-144.14;100.00
7075;BME280;3578;51.568;6.932;2022-11-15T07:01:09;54142.00;;;-144.14;100.00
7075;BME280;3578;51.568;6.932;2022-11-15T07:03:39;54180.09;;;-144.14;100.00
7075;BME280;3578;51.568;6.932;2022-11-15T07:06:09;54142.00;;;-144.14;100.00
7075;BME280;3578;51.568;6.932;2022-11-15T07:08:36;54146.03;;;-144.14;100.00
7075;BME280;3578;51.568;6.932;2022-11-15T07:11:06;54216.19;;;-144.14;100.00
7075;BME280;3578;51.568;6.932;2022-11-15T07:13:34;54140.00;;;-144.14;100.00
7075;BME280;3578;51.568;6.932;2022-11-15T07:16:04;54166.06;;;-144.14;100.00
7075;BME280;3578;51.568;6.932;2022-11-15T07:18:34;54156.03;;;-144.14;100.00
7075;BME280;3578;51.568;6.932;2022-11-15T07:21:02;54113.94;;;-144.14;100.00
7075;BME280;3578;51.568;6.932;2022-11-15T07:23:31;54138.00;;;-144.14;100.00
7075;BME280;3578;51.568;6.932;2022-11-15T07:25:58;54119.97;;;-144.14;100.00
7075;BME280;3578;51.568;6.932;2022-11-15T07:28:27;54148.03;;;-144.14;100.00
7075;BME280;3578;51.568;6.932;2022-11-15T07:30:54;54095.91;;;-144.14;100.00
7075;BME280;3578;51.568;6.932;2022-11-15T07:33:21;54138.00;;;-144.14;100.00
7075;BME280;3578;51.568;6.932;2022-11-15T07:35:48;54142.00;;;-144.14;100.00
7075;BME280;3578;51.568;6.932;2022-11-15T07:38:16;54091.91;;;-144.14;100.00
7075;BME280;3578;51.568;6.932;2022-11-15T07:40:47;54152.03;;;-144.14;100.00
7075;BME280;3578;51.568;6.932;2022-11-15T07:43:14;54154.03;;;-144.14;100.00
7075;BME280;3578;51.568;6.932;2022-11-15T07:45:42;54186.13;;;-144.14;100.00
7075;BME280;3578;51.568;6.932;2022-11-15T07:48:10;54176.09;;;-144.14;100.00
7075;BME280;3578;51.568;6.932;2022-11-15T07:50:40;54192.13;;;-144.14;100.00
7075;BME280;3578;51.568;6.932;2022-11-15T07:53:08;54180.09;;;-144.14;100.00
7075;BME280;3578;51.568;6.932;2022-11-15T07:55:36;54180.09;;;-144.14;100.00
7075;BME280;3578;51.568;6.932;2022-11-15T07:58:06;54150.03;;;-144.14;100.00
7075;BME280;3578;51.568;6.932;2022-11-15T08:00:34;54212.19;;;-144.14;99.76
7075;BME280;3578;51.568;6.932;2022-11-15T08:03:03;54232.22;;;-144.14;99.65
7075;BME280;3578;51.568;6.932;2022-11-15T08:05:30;54214.19;;;-144.14;99.38
7075;BME280;3578;51.568;6.932;2022-11-15T08:07:58;54212.19;;;-144.14;99.22
7075;BME280;3578;51.568;6.932;2022-11-15T08:10:25;54240.25;;;-144.14;98.26
7075;BME280;3578;51.568;6.932;2022-11-15T08:12:59;54256.28;;;-144.14;97.61
7075;BME280;3578;51.568;6.932;2022-11-15T08:15:28;54268.31;;;-144.14;97.30
7075;BME280;3578;51.568;6.932;2022-11-15T08:17:56;54282.34;;;-144.14;95.63
7075;BME280;3578;51.568;6.932;2022-11-15T08:20:25;54308.41;;;-144.14;95.77
7075;BME280;3578;51.568;6.932;2022-11-15T08:22:54;54326.44;;;-144.14;95.37
7075;BME280;3578;51.568;6.932;2022-11-15T08:25:21;54268.31;;;-144.14;96.90
7075;BME280;3578;51.568;6.932;2022-11-15T08:27:50;54232.22;;;-144.14;97.68
7075;BME280;3578;51.568;6.932;2022-11-15T08:30:17;54228.22;;;-144.14;99.08
7075;BME280;3578;51.568;6.932;2022-11-15T08:32:46;54164.06;;;-144.14;100.00
7075;BME280;3578;51.568;6.932;2022-11-15T08:35:13;54123.97;;;-144.14;100.00
7075;BME280;3578;51.568;6.932;2022-11-15T08:37:40;54138.00;;;-144.14;100.00
7075;BME280;3578;51.568;6.932;2022-11-15T08:40:08;54079.88;;;-144.14;100.00
7075;BME280;3578;51.568;6.932;2022-11-15T08:42:35;54079.88;;;-144.14;100.00
7075;BME280;3578;51.568;6.932;2022-11-15T08:45:03;54103.91;;;-144.14;100.00
7075;BME280;3578;51.568;6.932;2022-11-15T08:47:30;54075.84;;;-144.14;100.00
7075;BME280;3578;51.568;6.932;2022-11-15T08:49:58;54089.88;;;-144.14;100.00
7075;BME280;3578;51.568;6.932;2022-11-15T08:52:25;54091.91;;;-144.14;100.00
7075;BME280;3578;51.568;6.932;2022-11-15T08:54:52;54075.84;;;-144.14;100.00
7075;BME280;3578;51.568;6.932;2022-11-15T08:57:19;54079.88;;;-144.14;100.00
7075;BME280;3578;51.568;6.932;2022-11-15T08:59:46;54079.88;;;-144.14;100.00
7075;BME280;3578;51.568;6.932;2022-11-15T09:02:14;54059.81;;;-144.14;100.00
7075;BME280;3578;51.568;6.932;2022-11-15T09:04:42;54079.88;;;-144.14;100.00
7075;BME280;3578;51.568;6.932;2022-11-15T09:07:11;54097.91;;;-144.14;100.00
7075;BME280;3578;51.568;6.932;2022-11-15T09:09:39;54097.91;;;-144.14;100.00
7075;BME280;3578;51.568;6.932;2022-11-15T09:12:07;54091.91;;;-144.14;100.00
7075;BME280;3578;51.568;6.932;2022-11-15T09:14:34;54103.91;;;-144.14;100.00
7075;BME280;3578;51.568;6.932;2022-11-15T09:17:02;54095.91;;;-144.14;100.00
7075;BME280;3578;51.568;6.932;2022-11-15T09:19:29;54115.94;;;-144.14;100.00
7075;BME280;3578;51.568;6.932;2022-11-15T09:21:56;54083.88;;;-144.14;100.00
7075;BME280;3578;51.568;6.932;2022-11-15T09:24:24;54136.00;;;-144.14;100.00
7075;BME280;3578;51.568;6.932;2022-11-15T09:26:51;54125.97;;;-144.14;100.00
7075;BME280;3578;51.568;6.932;2022-11-15T09:29:18;54158.03;;;-144.14;100.00
7075;BME280;3578;51.568;6.932;2022-11-15T09:31:45;54180.09;;;-144.14;100.00
7075;BME280;3578;51.568;6.932;2022-11-15T09:34:12;54208.16;;;-144.14;100.00
7075;BME280;3578;51.568;6.932;2022-11-15T09:36:39;54274.31;;;-144.14;100.00
7075;BME280;3578;51.568;6.932;2022-11-15T09:39:06;54294.38;;;-144.14;100.00
7075;BME280;3578;51.568;6.932;2022-11-15T09:42:06;54298.38;;;-144.14;100.00
7075;BME280;3578;51.568;6.932;2022-11-15T09:45:05;54268.31;;;-144.14;99.00
7075;BME280;3578;51.568;6.932;2022-11-15T09:48:14;54298.38;;;-144.14;99.27
7075;BME280;3578;51.568;6.932;2022-11-15T09:50:48;54296.38;;;-144.14;99.18
7075;BME280;3578;51.568;6.932;2022-11-15T09:53:29;54296.38;;;-144.14;99.10
7075;BME280;3578;51.568;6.932;2022-11-15T09:56:00;54380.56;;;-144.14;99.29
7075;BME280;3578;51.568;6.932;2022-11-15T09:58:38;54346.50;;;-144.14;99.02
7075;BME280;3578;51.568;6.932;2022-11-15T10:01:12;54364.53;;;-144.14;98.72
7075;BME280;3578;51.568;6.932;2022-11-15T10:03:43;54388.59;;;-144.14;95.91
7075;BME280;3578;51.568;6.932;2022-11-15T10:06:23;54358.50;;;-144.14;94.81
7075;BME280;3578;51.568;6.932;2022-11-15T10:08:57;54412.66;;;-144.14;92.81
7075;BME280;3578;51.568;6.932;2022-11-15T10:11:28;54388.59;;;-144.14;91.19
7075;BME280;3578;51.568;6.932;2022-11-15T10:14:01;54384.56;;;-144.14;91.16
7075;BME280;3578;51.568;6.932;2022-11-15T10:17:02;54372.56;;;-144.14;89.00
7075;BME280;3578;51.568;6.932;2022-11-15T10:19:42;54316.41;;;-144.14;87.89
7075;BME280;3578;51.568;6.932;2022-11-15T10:22:28;54302.38;;;-144.14;87.45
7075;BME280;3578;51.568;6.932;2022-11-15T10:25:16;54312.41;;;-144.14;88.08
7075;BME280;3578;51.568;6.932;2022-11-15T10:27:47;54348.50;;;-144.14;88.39
7075;BME280;3578;51.568;6.932;2022-11-15T10:30:19;54334.47;;;-144.14;88.16
7075;BME280;3578;51.568;6.932;2022-11-15T10:32:48;54320.44;;;-144.14;87.21
7075;BME280;3578;51.568;6.932;2022-11-15T10:35:19;54320.44;;;-144.14;86.70
7075;BME280;3578;51.568;6.932;2022-11-15T10:37:47;54348.50;;;-144.14;87.41
7075;BME280;3578;51.568;6.932;2022-11-15T10:40:19;54356.50;;;-144.14;85.52
7075;BME280;3578;51.568;6.932;2022-11-15T10:42:48;54356.50;;;-144.14;85.25
7075;BME280;3578;51.568;6.932;2022-11-15T10:45:28;54384.56;;;-144.14;85.22
7075;BME280;3578;51.568;6.932;2022-11-15T10:48:23;54336.47;;;-144.14;85.40
7075;BME280;3578;51.568;6.932;2022-11-15T10:50:52;54342.47;;;-144.14;87.05
7075;BME280;3578;51.568;6.932;2022-11-15T10:53:28;54382.56;;;-144.14;86.42
7075;BME280;3578;51.568;6.932;2022-11-15T10:56:02;54356.50;;;-144.14;84.63
7075;BME280;3578;51.568;6.932;2022-11-15T10:58:34;54376.56;;;-144.14;84.90
7075;BME280;3578;51.568;6.932;2022-11-15T11:01:14;54382.56;;;-144.14;83.77
7075;BME280;3578;51.568;6.932;2022-11-15T11:03:43;54378.56;;;-144.14;84.54
7075;BME280;3578;51.568;6.932;2022-11-15T11:06:13;54396.59;;;-144.14;83.20
7075;BME280;3578;51.568;6.932;2022-11-15T11:08:52;54352.50;;;-144.14;82.68
7075;BME280;3578;51.568;6.932;2022-11-15T11:11:19;54360.53;;;-144.14;82.86
7075;BME280;3578;51.568;6.932;2022-11-15T11:13:48;54346.50;;;-144.14;82.19
7075;BME280;3578;51.568;6.932;2022-11-15T11:16:41;54346.50;;;-144.14;83.87
7075;BME280;3578;51.568;6.932;2022-11-15T11:19:27;54376.56;;;-144.14;80.71
7075;BME280;3578;51.568;6.932;2022-11-15T11:22:06;54388.59;;;-144.14;77.92
7075;BME280;3578;51.568;6.932;2022-11-15T11:24:42;54392.59;;;-144.14;75.37
7075;BME280;3578;51.568;6.932;2022-11-15T11:27:25;54394.59;;;-144.14;74.99
7075;BME280;3578;51.568;6.932;2022-11-15T11:30:06;54386.59;;;-144.14;77.44
7075;BME280;3578;51.568;6.932;2022-11-15T11:32:53;54338.47;;;-144.14;75.07
7075;BME280;3578;51.568;6.932;2022-11-15T11:35:28;54386.59;;;-144.14;73.98
7075;BME280;3578;51.568;6.932;2022-11-15T11:40:59;54432.69;;;-144.14;72.96
7075;BME280;3578;51.568;6.932;2022-11-15T11:43:32;54392.59;;;-144.14;71.67
7075;BME280;3578;51.568;6.932;2022-11-15T11:46:23;54388.59;;;-144.14;71.56
7075;BME280;3578;51.568;6.932;2022-11-15T11:49:01;54364.53;;;-144.14;70.52
7075;BME280;3578;51.568;6.932;2022-11-15T11:51:36;54352.50;;;-144.14;72.27
7075;BME280;3578;51.568;6.932;2022-11-15T11:54:11;54360.53;;;-144.14;71.75
7075;BME280;3578;51.568;6.932;2022-11-15T11:56:43;54364.53;;;-144.14;73.58
7075;BME280;3578;51.568;6.932;2022-11-15T11:59:19;54354.50;;;-144.14;72.69
7075;BME280;3578;51.568;6.932;2022-11-15T12:01:48;54352.50;;;-144.14;72.56
7075;BME280;3578;51.568;6.932;2022-11-15T12:04:20;54364.53;;;-144.14;68.27
7075;BME280;3578;51.568;6.932;2022-11-15T12:06:51;54388.59;;;-144.14;66.58
7075;BME280;3578;51.568;6.932;2022-11-15T12:09:29;54374.56;;;-144.14;67.74
7075;BME280;3578;51.568;6.932;2022-11-15T12:12:04;54384.56;;;-144.14;70.34
7075;BME280;3578;51.568;6.932;2022-11-15T12:14:38;54388.59;;;-144.14;69.44
7075;BME280;3578;51.568;6.932;2022-11-15T12:17:09;54396.59;;;-144.14;65.58
7075;BME280;3578;51.568;6.932;2022-11-15T12:19:38;54404.63;;;-144.14;64.64
7075;BME280;3578;51.568;6.932;2022-11-15T12:22:10;54416.66;;;-144.14;63.64
7075;BME280;3578;51.568;6.932;2022-11-15T12:24:44;54388.59;;;-144.14;63.69
7075;BME280;3578;51.568;6.932;2022-11-15T12:27:19;54404.63;;;-144.14;61.02
7075;BME280;3578;51.568;6.932;2022-11-15T12:29:51;54434.69;;;-144.14;61.11
7075;BME280;3578;51.568;6.932;2022-11-15T12:32:26;54430.69;;;-144.14;60.30
7075;BME280;3578;51.568;6.932;2022-11-15T12:34:57;54418.66;;;-144.14;58.61
7075;BME280;3578;51.568;6.932;2022-11-15T12:37:49;54434.69;;;-144.14;56.51
7075;BME280;3578;51.568;6.932;2022-11-15T12:40:26;54444.72;;;-144.14;56.67
7075;BME280;3578;51.568;6.932;2022-11-15T12:43:04;54412.66;;;-144.14;57.82
7075;BME280;3578;51.568;6.932;2022-11-15T12:45:33;54410.63;;;-144.14;57.37
7075;BME280;3578;51.568;6.932;2022-11-15T12:48:52;54396.59;;;-144.14;57.67
7075;BME280;3578;51.568;6.932;2022-11-15T12:57:37;54392.59;;;-144.14;59.56
7075;BME280;3578;51.568;6.932;2022-11-15T13:00:44;54380.56;;;-144.14;59.86
7075;BME280;3578;51.568;6.932;2022-11-15T13:03:25;54358.50;;;-144.14;59.97
7075;BME280;3578;51.568;6.932;2022-11-15T13:06:07;54396.59;;;-144.14;58.00
7075;BME280;3578;51.568;6.932;2022-11-15T13:08:49;54424.69;;;-144.14;58.04
7075;BME280;3578;51.568;6.932;2022-11-15T13:11:51;54412.66;;;-144.14;58.57
7075;BME280;3578;51.568;6.932;2022-11-15T13:14:55;54422.66;;;-144.14;56.09
7075;BME280;3578;51.568;6.932;2022-11-15T13:17:35;54426.69;;;-144.14;56.29
7075;BME280;3578;51.568;6.932;2022-11-15T13:20:23;54438.72;;;-144.14;57.07
7075;BME280;3578;51.568;6.932;2022-11-15T13:22:59;54480.81;;;-144.14;59.62
7075;BME280;3578;51.568;6.932;2022-11-15T13:26:10;54418.66;;;-144.14;59.57
7075;BME280;3578;51.568;6.932;2022-11-15T13:28:44;54426.69;;;-144.14;59.04